createdAt,value
2022-10-06T00:01:05.284Z,99.90
2022-10-06T00:03:32.564Z,99.90
2022-10-06T00:06:01.907Z,99.90
2022-10-06T00:08:31.318Z,99.90
2022-10-06T00:10:58.618Z,99.90
2022-10-06T00:13:26.841Z,99.90
2022-10-06T00:15:54.198Z,99.90
2022-10-06T00:18:21.331Z,99.90
2022-10-06T00:20:59.748Z,99.90
2022-10-06T00:23:28.592Z,99.90
2022-10-06T00:25:55.881Z,99.90
2022-10-06T00:28:23.429Z,99.90
2022-10-06T00:30:53.519Z,99.90
2022-10-06T00:33:20.922Z,99.90
2022-10-06T00:35:48.450Z,99.90
2022-10-06T00:38:17.468Z,99.90
2022-10-06T00:40:50.144Z,99.90
2022-10-06T00:43:57.147Z,99.90
2022-10-06T00:46:50.294Z,99.90
2022-10-06T00:49:35.779Z,99.90
2022-10-06T00:52:16.098Z,99.90
2022-10-06T00:54:43.380Z,99.90
2022-10-06T00:57:11.198Z,99.90
2022-10-06T00:59:40.490Z,99.90
2022-10-06T01:02:22.347Z,99.90
2022-10-06T01:04:57.166Z,99.90
2022-10-06T01:07:28.243Z,99.90
2022-10-06T01:09:57.312Z,99.90
2022-10-06T01:12:27.692Z,99.90
2022-10-06T01:14:56.414Z,99.90
2022-10-06T01:17:55.913Z,99.90
2022-10-06T01:20:23.565Z,99.90
2022-10-06T01:22:54.083Z,99.90
2022-10-06T01:25:22.363Z,99.90
2022-10-06T01:27:53.859Z,99.90
2022-10-06T01:30:36.100Z,99.90
2022-10-06T01:33:03.236Z,99.90
2022-10-06T01:35:30.359Z,99.90
2022-10-06T01:37:59.627Z,99.90
2022-10-06T01:40:29.228Z,99.90
2022-10-06T01:42:56.918Z,99.90
2022-10-06T01:45:24.101Z,99.90
2022-10-06T01:47:51.410Z,99.90
2022-10-06T01:50:20.310Z,99.90
2022-10-06T01:52:47.408Z,99.90
2022-10-06T01:55:14.693Z,99.90
2022-10-06T01:57:42.483Z,99.90
2022-10-06T02:00:11.566Z,99.90
2022-10-06T02:02:38.606Z,99.90
2022-10-06T02:05:06.513Z,99.90
2022-10-06T02:07:35.746Z,99.90
2022-10-06T02:10:03.823Z,99.90
2022-10-06T02:12:31.856Z,99.90
2022-10-06T02:14:59.417Z,99.90
2022-10-06T02:17:26.420Z,99.90
2022-10-06T02:19:53.402Z,99.90
2022-10-06T02:22:20.683Z,99.90
2022-10-06T02:24:47.670Z,99.90
2022-10-06T02:27:14.693Z,99.90
2022-10-06T02:29:41.850Z,99.90
2022-10-06T02:32:08.853Z,99.90
2022-10-06T02:34:35.843Z,99.90
2022-10-06T02:37:02.875Z,99.90
2022-10-06T02:39:29.864Z,99.90
2022-10-06T02:41:57.012Z,99.90
2022-10-06T02:44:25.336Z,99.90
2022-10-06T02:46:53.721Z,99.90
2022-10-06T02:49:20.799Z,99.90
2022-10-06T02:51:47.884Z,99.90
2022-10-06T02:54:15.510Z,99.90
2022-10-06T02:56:42.520Z,99.90
2022-10-06T02:59:09.563Z,99.90
2022-10-06T03:01:36.745Z,99.90
2022-10-06T03:04:03.832Z,99.90
2022-10-06T03:06:32.041Z,99.90
2022-10-06T03:09:01.101Z,99.90
2022-10-06T03:11:35.040Z,99.90
2022-10-06T03:14:02.456Z,99.90
2022-10-06T03:16:33.994Z,99.90
2022-10-06T03:19:02.139Z,99.90
2022-10-06T03:21:37.680Z,99.90
2022-10-06T03:24:05.559Z,99.90
2022-10-06T03:26:39.539Z,99.90
2022-10-06T03:29:11.272Z,99.90
2022-10-06T03:31:40.227Z,99.90
2022-10-06T03:34:07.583Z,99.90
2022-10-06T03:36:36.261Z,99.90
2022-10-06T03:39:05.485Z,99.90
2022-10-06T03:41:38.575Z,99.90
2022-10-06T03:44:05.862Z,99.90
2022-10-06T03:46:35.557Z,99.90
2022-10-06T03:49:03.139Z,99.90
2022-10-06T03:51:41.527Z,99.90
2022-10-06T03:54:10.926Z,99.90
2022-10-06T03:56:41.067Z,99.90
2022-10-06T03:59:14.519Z,99.90
2022-10-06T04:01:45.225Z,99.90
2022-10-06T04:04:13.371Z,99.90
2022-10-06T04:06:44.034Z,99.90
2022-10-06T04:09:15.872Z,99.90
2022-10-06T04:11:44.534Z,99.90
2022-10-06T04:14:15.507Z,99.90
2022-10-06T04:16:45.955Z,99.90
2022-10-06T04:19:14.546Z,99.90
2022-10-06T04:21:44.010Z,99.90
2022-10-06T04:24:12.179Z,99.90
2022-10-06T04:26:45.176Z,99.90
2022-10-06T04:29:13.034Z,99.90
2022-10-06T04:31:42.568Z,99.90
2022-10-06T04:34:13.355Z,99.90
2022-10-06T04:36:42.928Z,99.90
2022-10-06T04:39:12.459Z,99.90
2022-10-06T04:41:42.075Z,99.90
2022-10-06T04:44:10.386Z,99.90
2022-10-06T04:46:43.248Z,99.90
2022-10-06T04:49:18.641Z,99.90
2022-10-06T04:51:50.491Z,99.90
2022-10-06T04:54:19.238Z,99.90
2022-10-06T04:56:46.691Z,99.90
2022-10-06T04:59:13.790Z,99.90
2022-10-06T05:01:40.903Z,99.90
2022-10-06T05:04:08.651Z,99.90
2022-10-06T05:06:41.615Z,99.90
2022-10-06T05:09:15.840Z,99.90
2022-10-06T05:11:43.132Z,99.90
2022-10-06T05:14:10.186Z,99.90
2022-10-06T05:16:38.331Z,99.90
2022-10-06T05:19:05.695Z,99.90
2022-10-06T05:21:33.208Z,99.90
2022-10-06T05:24:00.681Z,99.90
2022-10-06T05:26:31.675Z,99.90
2022-10-06T05:28:58.834Z,99.90
2022-10-06T05:31:29.414Z,99.90
2022-10-06T05:33:58.249Z,99.90
2022-10-06T05:36:29.822Z,99.90
2022-10-06T05:38:58.284Z,99.90
2022-10-06T05:41:31.327Z,99.90
2022-10-06T05:43:59.103Z,99.90
2022-10-06T05:46:32.379Z,99.90
2022-10-06T05:49:03.315Z,99.90
2022-10-06T05:51:33.838Z,99.90
2022-10-06T05:54:01.725Z,99.90
2022-10-06T05:56:32.378Z,99.90
2022-10-06T05:59:00.708Z,99.90
2022-10-06T06:01:30.078Z,99.90
2022-10-06T06:04:03.100Z,99.90
2022-10-06T06:06:32.099Z,99.90
2022-10-06T06:09:10.071Z,99.90
2022-10-06T06:11:40.614Z,99.90
2022-10-06T06:14:17.903Z,99.90
2022-10-06T06:16:45.710Z,99.90
2022-10-06T06:19:14.483Z,99.90
2022-10-06T06:21:41.654Z,99.90
2022-10-06T06:24:08.751Z,99.90
2022-10-06T06:26:37.844Z,99.90
2022-10-06T06:29:06.950Z,99.90
2022-10-06T06:31:40.037Z,99.90
2022-10-06T06:34:08.306Z,99.90
2022-10-06T06:36:41.271Z,99.90
2022-10-06T06:39:13.652Z,99.90
2022-10-06T06:41:45.216Z,99.90
2022-10-06T06:44:13.066Z,99.90
2022-10-06T06:46:49.266Z,99.90
2022-10-06T06:49:20.153Z,99.90
2022-10-06T06:51:49.993Z,99.90
2022-10-06T06:54:18.309Z,99.90
2022-10-06T06:56:46.666Z,99.90
2022-10-06T06:59:13.810Z,99.90
2022-10-06T07:01:47.361Z,99.90
2022-10-06T07:04:16.939Z,99.90
2022-10-06T07:07:06.580Z,99.90
2022-10-06T07:09:33.581Z,99.90
2022-10-06T07:12:00.669Z,99.90
2022-10-06T07:14:27.771Z,99.90
2022-10-06T07:17:13.671Z,99.90
2022-10-06T07:19:40.766Z,99.90
2022-10-06T07:22:26.054Z,99.90
2022-10-06T07:25:12.930Z,99.90
2022-10-06T07:27:46.720Z,99.90
2022-10-06T07:30:40.559Z,99.90
2022-10-06T07:33:09.292Z,99.90
2022-10-06T07:35:38.739Z,99.90
2022-10-06T07:38:08.164Z,99.90
2022-10-06T07:40:35.662Z,99.90
2022-10-06T07:43:02.741Z,99.90
2022-10-06T07:45:39.671Z,99.90
2022-10-06T07:48:18.225Z,99.90
2022-10-06T07:50:51.044Z,99.90
2022-10-06T07:53:20.811Z,99.90
2022-10-06T07:55:49.729Z,99.90
2022-10-06T07:58:24.092Z,99.90
2022-10-06T08:00:54.770Z,99.90
2022-10-06T08:03:22.499Z,99.90
2022-10-06T08:05:57.774Z,99.90
2022-10-06T08:08:24.889Z,99.90
2022-10-06T08:11:00.306Z,99.90
2022-10-06T08:13:29.043Z,99.90
2022-10-06T08:15:56.612Z,99.90
2022-10-06T08:18:44.984Z,99.90
2022-10-06T08:21:20.054Z,99.90
2022-10-06T08:23:49.635Z,99.90
2022-10-06T08:26:19.608Z,99.90
2022-10-06T08:28:50.371Z,99.90
2022-10-06T08:31:21.693Z,99.90
2022-10-06T08:33:53.462Z,99.90
2022-10-06T08:36:21.414Z,99.90
2022-10-06T08:38:51.430Z,99.90
2022-10-06T08:41:44.757Z,99.90
2022-10-06T08:44:18.674Z,99.90
2022-10-06T08:47:00.840Z,99.90
2022-10-06T08:49:44.508Z,99.90
2022-10-06T08:52:36.268Z,99.90
2022-10-06T08:55:23.332Z,99.90
2022-10-06T08:58:29.375Z,99.90
2022-10-06T09:01:25.546Z,99.90
2022-10-06T09:03:57.461Z,99.90
2022-10-06T09:06:46.270Z,99.90
2022-10-06T09:09:47.722Z,99.90
2022-10-06T09:12:30.123Z,99.90
2022-10-06T09:15:22.150Z,99.90
2022-10-06T09:18:19.839Z,99.90
2022-10-06T09:21:07.650Z,99.90
2022-10-06T09:23:48.339Z,99.90
2022-10-06T09:26:29.538Z,99.90
2022-10-06T09:28:57.804Z,99.90
2022-10-06T09:31:32.080Z,99.90
2022-10-06T09:34:23.000Z,99.90
2022-10-06T09:37:12.955Z,99.90
2022-10-06T09:39:51.311Z,99.90
2022-10-06T09:42:38.263Z,99.90
2022-10-06T09:45:17.688Z,99.90
2022-10-06T09:47:45.964Z,99.90
2022-10-06T09:50:21.826Z,99.90
2022-10-06T09:53:00.967Z,99.90
2022-10-06T09:55:39.818Z,99.90
2022-10-06T09:58:31.260Z,99.90
2022-10-06T10:01:01.876Z,99.90
2022-10-06T10:04:18.639Z,99.90
2022-10-06T10:06:41.793Z,99.90
2022-10-06T10:09:29.904Z,99.90
2022-10-06T10:12:25.452Z,99.90
2022-10-06T10:15:11.943Z,99.90
2022-10-06T10:17:50.460Z,99.90
2022-10-06T10:20:25.332Z,99.90
2022-10-06T10:22:54.806Z,99.90
2022-10-06T10:25:58.717Z,99.90
2022-10-06T10:28:58.404Z,99.90
2022-10-06T10:31:52.673Z,99.90
2022-10-06T10:34:34.927Z,99.90
2022-10-06T10:37:25.479Z,99.90
2022-10-06T10:40:12.419Z,99.90
2022-10-06T10:42:49.124Z,99.90
2022-10-06T10:45:32.396Z,99.90
2022-10-06T10:48:01.862Z,99.90
2022-10-06T10:50:46.940Z,99.90
2022-10-06T10:53:32.736Z,99.90
2022-10-06T10:56:00.824Z,99.90
2022-10-06T10:58:41.899Z,99.90
2022-10-06T11:01:35.897Z,99.90
2022-10-06T11:04:03.649Z,99.90
2022-10-06T11:07:06.393Z,99.90
2022-10-06T11:10:06.268Z,99.90
2022-10-06T11:13:28.429Z,99.90
2022-10-06T11:16:14.768Z,99.90
2022-10-06T11:19:03.267Z,99.90
2022-10-06T11:22:02.044Z,98.70
2022-10-06T11:24:51.331Z,98.40
2022-10-06T11:27:44.788Z,99.90
2022-10-06T11:30:19.683Z,96.40
2022-10-06T11:33:13.724Z,96.00
2022-10-06T11:35:45.269Z,94.10
2022-10-06T11:38:38.256Z,92.10
2022-10-06T11:41:27.629Z,94.10
2022-10-06T11:44:19.974Z,93.50
2022-10-06T11:46:56.665Z,92.30
2022-10-06T11:49:29.734Z,90.40
2022-10-06T11:52:17.331Z,90.20
2022-10-06T11:54:55.311Z,91.10
2022-10-06T11:57:30.943Z,91.70
2022-10-06T12:00:05.043Z,91.80
2022-10-06T12:02:37.513Z,92.60
2022-10-06T12:05:35.744Z,90.70
2022-10-06T12:07:59.362Z,91.00
2022-10-06T12:10:35.901Z,89.70
2022-10-06T12:20:08.869Z,86.00
2022-10-06T12:22:47.595Z,85.20
2022-10-06T12:25:47.853Z,80.90
2022-10-06T12:28:42.366Z,87.50
2022-10-06T12:31:45.540Z,82.20
2022-10-06T12:34:58.585Z,82.90
2022-10-06T12:37:37.429Z,89.40
2022-10-06T12:40:38.734Z,76.80
2022-10-06T12:43:14.976Z,78.20
2022-10-06T12:45:55.805Z,80.50
2022-10-06T12:48:56.389Z,76.30
2022-10-06T12:51:35.937Z,78.10
2022-10-06T12:54:23.758Z,85.80
2022-10-06T12:57:02.028Z,83.20
2022-10-06T12:59:35.252Z,85.00
2022-10-06T13:02:08.863Z,86.60
2022-10-06T13:05:10.143Z,82.40
2022-10-06T13:08:25.919Z,84.40
2022-10-06T13:11:27.306Z,87.80
2022-10-06T13:13:58.811Z,86.40
2022-10-06T13:16:31.252Z,87.90
2022-10-06T13:19:01.319Z,88.20
2022-10-06T13:21:32.972Z,90.00
2022-10-06T13:24:02.950Z,90.40
2022-10-06T13:26:32.840Z,90.10
2022-10-06T13:29:01.512Z,88.30
2022-10-06T13:31:35.908Z,91.00
2022-10-06T13:34:16.017Z,88.20
2022-10-06T13:36:48.143Z,88.80
2022-10-06T13:39:27.278Z,89.40
2022-10-06T13:42:03.725Z,89.70
2022-10-06T13:44:55.314Z,92.10
2022-10-06T13:47:25.912Z,90.00
2022-10-06T13:50:07.291Z,90.90
2022-10-06T13:52:40.600Z,91.00
2022-10-06T13:55:34.101Z,92.60
2022-10-06T13:58:04.856Z,93.00
2022-10-06T14:00:49.088Z,91.90
2022-10-06T14:03:25.954Z,94.50
2022-10-06T14:06:18.493Z,92.50
2022-10-06T14:08:50.961Z,94.30
2022-10-06T14:11:26.575Z,93.80
2022-10-06T14:14:01.421Z,94.00
2022-10-06T14:16:29.603Z,94.80
2022-10-06T14:19:02.778Z,93.70
2022-10-06T14:21:36.776Z,97.70
2022-10-06T14:24:16.935Z,95.90
2022-10-06T14:26:49.898Z,97.00
2022-10-06T14:29:18.571Z,96.00
2022-10-06T14:31:47.040Z,97.40
2022-10-06T14:34:17.215Z,98.40
2022-10-06T14:36:47.911Z,99.70
2022-10-06T14:39:16.059Z,98.30
2022-10-06T14:41:45.520Z,95.70
2022-10-06T14:44:15.180Z,94.90
2022-10-06T14:46:47.518Z,98.20
2022-10-06T14:49:15.199Z,99.90
2022-10-06T14:51:44.691Z,99.40
2022-10-06T14:54:12.337Z,98.90
2022-10-06T14:56:41.148Z,96.30
2022-10-06T14:59:12.335Z,96.90
2022-10-06T15:01:42.872Z,94.90
2022-10-06T15:04:16.250Z,96.80
2022-10-06T15:07:02.372Z,95.10
2022-10-06T15:09:31.037Z,98.10
2022-10-06T15:11:59.810Z,99.50
2022-10-06T15:14:28.588Z,99.90
2022-10-06T15:16:59.213Z,99.90
2022-10-06T15:19:26.495Z,99.90
2022-10-06T15:21:53.819Z,99.90
2022-10-06T15:24:20.898Z,99.90
2022-10-06T15:27:14.289Z,99.90
2022-10-06T15:29:42.412Z,99.90
2022-10-06T15:32:09.613Z,99.90
2022-10-06T15:34:37.973Z,99.90
2022-10-06T15:37:05.671Z,99.90
2022-10-06T15:39:36.829Z,99.90
2022-10-06T15:42:04.539Z,99.90
2022-10-06T15:44:34.586Z,99.90
2022-10-06T15:47:04.814Z,99.90
2022-10-06T15:49:33.134Z,99.90
2022-10-06T15:52:03.351Z,99.90
2022-10-06T15:54:34.158Z,99.90
2022-10-06T15:57:03.474Z,99.90
2022-10-06T15:59:32.760Z,99.90
2022-10-06T16:02:18.374Z,99.90
2022-10-06T16:05:09.107Z,99.90
2022-10-06T16:07:36.195Z,99.90
2022-10-06T16:10:04.017Z,99.90
2022-10-06T16:12:32.783Z,99.90
2022-10-06T16:14:59.889Z,99.90
2022-10-06T16:17:26.934Z,99.90
2022-10-06T16:19:53.955Z,99.90
2022-10-06T16:22:21.956Z,99.90
2022-10-06T16:24:50.095Z,99.90
2022-10-06T16:27:17.324Z,99.90
2022-10-06T16:29:44.506Z,99.90
2022-10-06T16:32:11.742Z,99.90
2022-10-06T16:34:38.743Z,99.90
2022-10-06T16:37:05.791Z,99.90
2022-10-06T16:39:34.097Z,99.90
2022-10-06T16:42:01.173Z,99.90
2022-10-06T16:44:28.257Z,99.90
2022-10-06T16:46:55.306Z,99.90
2022-10-06T16:49:24.510Z,99.90
2022-10-06T16:51:51.655Z,99.90
2022-10-06T16:54:18.768Z,99.90
2022-10-06T16:56:54.351Z,99.90
2022-10-06T16:59:23.671Z,99.90
2022-10-06T17:01:51.039Z,99.90
2022-10-06T17:04:24.227Z,99.90
2022-10-06T17:06:57.084Z,99.90
2022-10-06T17:09:27.578Z,99.90
2022-10-06T17:12:00.871Z,99.90
2022-10-06T17:14:34.603Z,99.90
2022-10-06T17:17:01.789Z,99.90
2022-10-06T17:19:30.535Z,99.90
2022-10-06T17:21:59.735Z,99.90
2022-10-06T17:24:28.986Z,99.90
2022-10-06T17:26:57.408Z,99.90
2022-10-06T17:29:25.185Z,99.90
2022-10-06T17:31:59.295Z,99.90
2022-10-06T17:34:31.824Z,99.90
2022-10-06T17:36:59.741Z,99.90
2022-10-06T17:39:26.893Z,99.90
2022-10-06T17:41:54.266Z,99.90
2022-10-06T17:44:26.071Z,99.90
2022-10-06T17:46:56.685Z,99.90
2022-10-06T17:49:25.067Z,99.90
2022-10-06T17:51:54.385Z,99.90
2022-10-06T17:54:23.796Z,99.90
2022-10-06T17:56:56.847Z,99.90
2022-10-06T17:59:32.142Z,99.90
2022-10-06T18:02:02.768Z,99.90
2022-10-06T18:04:30.485Z,99.90
2022-10-06T18:06:57.809Z,99.90
2022-10-06T18:09:25.277Z,99.90
2022-10-06T18:11:56.611Z,99.90
2022-10-06T18:14:33.364Z,99.90
2022-10-06T18:17:02.348Z,99.90
2022-10-06T18:19:35.087Z,99.90
2022-10-06T18:22:10.322Z,99.90
2022-10-06T18:24:38.306Z,99.90
2022-10-06T18:27:06.529Z,99.90
2022-10-06T18:29:37.085Z,99.90
2022-10-06T18:37:40.306Z,99.90
2022-10-06T18:40:10.034Z,99.90
2022-10-06T18:42:39.151Z,99.90
2022-10-06T18:45:26.811Z,99.90
2022-10-06T18:48:12.467Z,99.90
2022-10-06T18:50:39.662Z,99.90
2022-10-06T18:53:07.048Z,99.90
2022-10-06T18:55:35.056Z,99.90
2022-10-06T18:58:03.382Z,99.90
2022-10-06T19:00:31.223Z,99.90
2022-10-06T19:02:58.264Z,99.90
2022-10-06T19:05:25.522Z,99.90
2022-10-06T19:07:53.921Z,99.90
2022-10-06T19:10:21.107Z,99.90
2022-10-06T19:12:48.604Z,99.90
2022-10-06T19:15:20.322Z,99.90
2022-10-06T19:17:49.759Z,99.90
2022-10-06T19:20:18.548Z,99.90
2022-10-06T19:22:47.634Z,99.90
2022-10-06T19:25:18.736Z,99.90
2022-10-06T19:27:46.026Z,99.90
2022-10-06T19:30:14.922Z,99.90
2022-10-06T19:32:42.558Z,99.90
2022-10-06T19:35:10.751Z,99.90
2022-10-06T19:37:39.261Z,99.90
2022-10-06T19:40:08.903Z,99.90
2022-10-06T19:42:48.429Z,99.90
2022-10-06T19:45:18.109Z,99.90
2022-10-06T19:47:46.174Z,99.90
2022-10-06T19:50:13.929Z,99.90
2022-10-06T19:52:42.250Z,99.90
2022-10-06T19:55:09.541Z,99.90
2022-10-06T19:57:36.646Z,99.90
2022-10-06T20:00:06.660Z,99.90
2022-10-06T20:02:34.916Z,99.90
2022-10-06T20:05:03.547Z,99.90
2022-10-06T20:07:30.724Z,99.90
2022-10-06T20:09:57.720Z,99.90
2022-10-06T20:12:25.595Z,99.90
2022-10-06T20:14:53.850Z,99.90
2022-10-06T20:17:21.556Z,99.90
2022-10-06T20:19:48.558Z,99.90
2022-10-06T20:22:15.610Z,99.90
2022-10-06T20:24:42.660Z,99.90
2022-10-06T20:27:15.236Z,99.90
2022-10-06T20:29:42.277Z,99.90
2022-10-06T20:32:09.456Z,99.90
2022-10-06T20:34:36.911Z,99.90
2022-10-06T20:37:05.688Z,99.90
2022-10-06T20:39:52.554Z,99.90
2022-10-06T20:42:21.427Z,99.90
2022-10-06T20:44:48.542Z,99.90
2022-10-06T20:47:19.086Z,99.90
2022-10-06T20:49:46.157Z,99.90
2022-10-06T20:52:14.977Z,99.90
2022-10-06T20:54:42.464Z,99.90
2022-10-06T20:57:09.955Z,99.90
2022-10-06T20:59:37.792Z,99.90
2022-10-06T21:02:06.371Z,99.90
2022-10-06T21:04:34.645Z,99.90
2022-10-06T21:07:04.018Z,99.90
2022-10-06T21:09:31.127Z,99.90
2022-10-06T21:11:58.194Z,99.90
2022-10-06T21:14:25.334Z,99.90
2022-10-06T21:16:52.817Z,99.90
2022-10-06T21:19:20.321Z,99.90
2022-10-06T21:21:53.507Z,99.90
2022-10-06T21:24:20.853Z,99.90
2022-10-06T21:26:48.940Z,99.90
2022-10-06T21:29:16.487Z,99.90
2022-10-06T21:31:44.814Z,99.90
2022-10-06T21:34:14.426Z,99.90
2022-10-06T21:36:43.502Z,99.90
2022-10-06T21:39:11.721Z,99.90
2022-10-06T21:41:39.907Z,99.90
2022-10-06T21:44:08.283Z,99.90
2022-10-06T21:46:37.567Z,99.90
2022-10-06T21:49:09.515Z,99.90
2022-10-06T21:51:37.577Z,99.90
2022-10-06T21:54:04.888Z,99.90
2022-10-06T21:56:33.879Z,99.90
2022-10-06T21:59:01.112Z,99.90
2022-10-06T22:01:32.757Z,99.90
2022-10-06T22:04:01.303Z,99.90
2022-10-06T22:06:31.197Z,99.90
2022-10-06T22:08:59.097Z,99.90
2022-10-06T22:11:29.753Z,99.90
2022-10-06T22:14:01.722Z,99.90
2022-10-06T22:16:32.240Z,99.90
2022-10-06T22:18:59.791Z,99.90
2022-10-06T22:21:34.778Z,99.90
2022-10-06T22:24:08.807Z,99.90
2022-10-06T22:26:37.990Z,99.90
2022-10-06T22:29:11.478Z,99.90
2022-10-06T22:31:41.172Z,99.90
2022-10-06T22:34:11.180Z,99.90
2022-10-06T22:36:38.954Z,99.90
2022-10-06T22:39:06.163Z,99.90
2022-10-06T22:41:33.177Z,99.90
2022-10-06T22:44:00.605Z,99.90
2022-10-06T22:46:31.479Z,99.90
2022-10-06T22:48:59.443Z,99.90
2022-10-06T22:51:27.082Z,99.90
2022-10-06T22:53:58.455Z,99.90
2022-10-06T22:56:27.620Z,99.90
2022-10-06T22:58:55.289Z,99.90
2022-10-06T23:01:22.372Z,99.90
2022-10-06T23:03:49.436Z,99.90
2022-10-06T23:06:18.209Z,99.90
2022-10-06T23:08:45.590Z,99.90
2022-10-06T23:11:18.852Z,99.90
2022-10-06T23:13:46.575Z,99.90
2022-10-06T23:16:16.987Z,99.90
2022-10-06T23:18:45.294Z,99.90
2022-10-06T23:21:27.344Z,99.90
2022-10-06T23:23:59.068Z,99.90
2022-10-06T23:26:26.376Z,99.90
2022-10-06T23:28:57.333Z,99.90
2022-10-06T23:31:25.535Z,99.90
2022-10-06T23:33:54.767Z,99.90
2022-10-06T23:36:22.019Z,99.90
2022-10-06T23:38:49.054Z,99.90
2022-10-06T23:41:16.177Z,99.90
2022-10-06T23:43:43.716Z,99.90
2022-10-06T23:46:11.002Z,99.90
2022-10-06T23:48:38.066Z,99.90
2022-10-06T23:51:12.865Z,99.90
2022-10-06T23:53:40.276Z,99.90
2022-10-06T23:56:08.013Z,99.90
2022-10-06T23:58:35.636Z,99.90
